Time;durP1;ratioP1;P1;durP2;ratioP2;P2;SDS_P1;SDS_P2;PMS_P1;PMS_P2;Temp;Humidity;BMP_temperature;BMP_pressure;BME280_temperature;BME280_humidity;BME280_pressure;Samples;Min_cycle;Max_cycle;Signal;HPM_P1;HPM_P2
2022/09/27 00:00:26;;;;;;;0.60;0.60;;;13.40;98.60;;;;;;946503;147;27374;-75
2022/09/27 00:02:53;;;;;;;0.50;0.50;;;13.40;98.70;;;;;;930300;150;27429;-75
2022/09/27 00:05:20;;;;;;;0.60;0.60;;;13.40;98.70;;;;;;945975;148;27317;-76
2022/09/27 00:07:46;;;;;;;0.60;0.60;;;13.40;98.90;;;;;;956103;149;27628;-77
2022/09/27 00:10:13;;;;;;;0.93;0.73;;;13.40;98.80;;;;;;951920;148;27374;-76
2022/09/27 00:12:39;;;;;;;0.87;0.87;;;13.40;98.90;;;;;;927371;151;27366;-74
2022/09/27 00:15:06;;;;;;;0.60;0.60;;;13.40;98.90;;;;;;950450;147;27332;-75
2022/09/27 00:17:33;;;;;;;1.40;0.57;;;13.40;99.00;;;;;;949231;149;27380;-75
2022/09/27 00:19:59;;;;;;;0.60;0.60;;;13.50;99.20;;;;;;948825;149;27289;-76
2022/09/27 00:22:26;;;;;;;0.97;0.70;;;13.40;99.10;;;;;;931818;151;27449;-75
2022/09/27 00:24:53;;;;;;;0.43;0.43;;;13.50;99.20;;;;;;932994;151;27469;-75
2022/09/27 00:27:19;;;;;;;0.60;0.60;;;13.50;99.30;;;;;;949204;149;27303;-75
2022/09/27 00:29:46;;;;;;;0.60;0.60;;;13.50;99.40;;;;;;926188;151;27334;-75
2022/09/27 00:32:12;;;;;;;0.50;0.50;;;13.50;99.40;;;;;;929570;151;27695;-75
2022/09/27 00:34:39;;;;;;;0.70;0.50;;;13.50;99.40;;;;;;950189;149;27879;-76
2022/09/27 00:37:05;;;;;;;0.57;0.40;;;13.50;99.50;;;;;;940058;150;27376;-76
2022/09/27 00:39:32;;;;;;;1.53;0.80;;;13.50;99.50;;;;;;942311;150;28071;-75
2022/09/27 00:41:58;;;;;;;0.97;0.60;;;13.50;99.60;;;;;;940099;150;27395;-75
2022/09/27 00:44:28;;;;;;;0.60;0.60;;;13.50;99.60;;;;;;949185;149;27437;-75
2022/09/27 00:47:13;;;;;;;0.30;0.30;;;13.50;99.70;;;;;;950152;149;27303;-76
2022/09/27 00:49:48;;;;;;;0.60;0.60;;;13.50;99.60;;;;;;938891;150;27359;-75
2022/09/27 00:52:23;;;;;;;0.97;0.70;;;13.50;99.60;;;;;;919532;150;27975;-75
2022/09/27 00:54:50;;;;;;;0.60;0.60;;;13.50;99.60;;;;;;891385;159;27512;-76
2022/09/27 00:57:17;;;;;;;0.60;0.60;;;13.60;99.70;;;;;;938722;150;27353;-75
2022/09/27 00:59:44;;;;;;;0.60;0.60;;;13.50;99.80;;;;;;939330;150;27377;-77
2022/09/27 01:02:10;;;;;;;0.90;0.90;;;13.50;99.70;;;;;;936278;150;27359;-75
2022/09/27 01:04:36;;;;;;;1.67;0.70;;;13.50;99.70;;;;;;940584;151;27329;-75
2022/09/27 01:07:03;;;;;;;0.57;0.57;;;13.50;99.70;;;;;;931523;152;27392;-75
2022/09/27 01:09:30;;;;;;;0.50;0.50;;;13.50;99.70;;;;;;950140;147;27388;-75
2022/09/27 01:12:08;;;;;;;0.53;0.53;;;13.50;99.70;;;;;;938639;152;27319;-77
2022/09/27 01:14:34;;;;;;;1.07;0.70;;;13.50;99.70;;;;;;937951;152;27365;-75
2022/09/27 01:17:01;;;;;;;1.23;0.83;;;13.50;99.70;;;;;;937013;152;27278;-75
2022/09/27 01:19:37;;;;;;;1.00;0.70;;;13.50;99.80;;;;;;936083;152;27832;-75
2022/09/27 01:22:03;;;;;;;0.80;0.77;;;13.50;99.80;;;;;;934229;152;27463;-77
2022/09/27 01:24:36;;;;;;;0.57;0.57;;;13.50;99.90;;;;;;937688;152;27365;-74
2022/09/27 01:27:11;;;;;;;2.33;0.70;;;13.50;99.90;;;;;;937395;151;27364;-75
2022/09/27 01:29:46;;;;;;;1.93;0.90;;;13.50;99.90;;;;;;937791;152;27327;-75
2022/09/27 01:32:25;;;;;;;2.10;0.70;;;13.40;99.90;;;;;;936229;152;27331;-76
2022/09/27 01:35:01;;;;;;;1.80;1.63;;;13.40;99.90;;;;;;936189;152;27470;-77
2022/09/27 01:37:36;;;;;;;3.00;0.83;;;13.40;99.90;;;;;;936570;152;27366;-76
2022/09/27 01:40:09;;;;;;;1.00;0.90;;;13.40;99.90;;;;;;912290;152;27818;-77
2022/09/27 01:42:41;;;;;;;1.27;0.90;;;13.40;99.90;;;;;;936102;152;27413;-75
2022/09/27 01:45:26;;;;;;;1.37;1.27;;;13.40;99.90;;;;;;948939;149;27460;-75
2022/09/27 01:47:52;;;;;;;1.43;0.90;;;13.40;99.90;;;;;;931992;150;27364;-76
2022/09/27 01:50:21;;;;;;;1.37;1.20;;;13.30;99.90;;;;;;939686;152;27344;-75
2022/09/27 01:52:50;;;;;;;2.43;1.10;;;13.40;99.90;;;;;;939571;152;27394;-75
2022/09/27 01:55:17;;;;;;;1.03;0.83;;;13.30;99.90;;;;;;949047;148;27768;-76
2022/09/27 01:57:44;;;;;;;1.27;1.10;;;13.30;99.90;;;;;;949307;149;27332;-77
2022/09/27 02:00:10;;;;;;;0.97;0.93;;;13.30;99.90;;;;;;936685;150;27987;-76
2022/09/27 02:02:37;;;;;;;1.70;1.00;;;13.30;99.90;;;;;;932885;152;27246;-75
2022/09/27 02:05:04;;;;;;;1.10;1.00;;;13.30;99.90;;;;;;947136;149;27365;-76
2022/09/27 02:07:42;;;;;;;1.67;1.03;;;13.30;99.90;;;;;;947953;150;27360;-75
2022/09/27 02:10:09;;;;;;;1.43;0.60;;;13.30;99.90;;;;;;911564;152;27338;-77
2022/09/27 02:12:35;;;;;;;0.80;0.73;;;13.30;99.90;;;;;;947065;148;27885;-75
2022/09/27 02:15:03;;;;;;;0.80;0.80;;;13.30;99.90;;;;;;948603;148;27409;-75
2022/09/27 02:17:31;;;;;;;1.93;0.93;;;13.30;99.90;;;;;;935677;149;27836;-76
2022/09/27 02:20:10;;;;;;;1.07;0.97;;;13.30;99.90;;;;;;948603;148;27293;-76
2022/09/27 02:22:39;;;;;;;1.30;0.90;;;13.30;99.90;;;;;;946890;149;27440;-75
2022/09/27 02:25:14;;;;;;;1.80;1.07;;;13.30;99.90;;;;;;948348;148;27446;-75
2022/09/27 02:27:56;;;;;;;1.07;0.90;;;13.30;99.90;;;;;;946346;146;27426;-75
2022/09/27 02:30:22;;;;;;;2.00;0.90;;;13.30;99.90;;;;;;947764;146;27237;-77
2022/09/27 02:32:49;;;;;;;2.00;0.90;;;13.30;99.90;;;;;;947740;146;27385;-75
2022/09/27 02:35:18;;;;;;;1.30;1.17;;;13.30;99.90;;;;;;952481;146;27474;-75
2022/09/27 02:37:45;;;;;;;0.93;0.93;;;13.30;99.90;;;;;;937629;149;27463;-75
2022/09/27 02:40:12;;;;;;;1.57;1.40;;;13.30;99.90;;;;;;945772;148;27444;-75
2022/09/27 02:42:38;;;;;;;1.70;0.90;;;13.30;99.90;;;;;;932057;149;27412;-76
2022/09/27 02:45:04;;;;;;;2.10;1.10;;;13.30;99.90;;;;;;948036;146;27377;-75
2022/09/27 02:47:46;;;;;;;2.20;1.20;;;13.30;99.90;;;;;;931641;149;28004;-75
2022/09/27 02:50:32;;;;;;;3.97;1.43;;;13.30;99.90;;;;;;946214;146;27416;-75
2022/09/27 02:53:00;;;;;;;1.17;0.93;;;13.40;99.90;;;;;;947595;148;27352;-76
2022/09/27 02:55:35;;;;;;;1.87;1.00;;;13.40;99.90;;;;;;935073;149;27335;-77
2022/09/27 02:58:23;;;;;;;2.57;1.40;;;13.30;99.90;;;;;;936018;150;27445;-75
2022/09/27 03:01:11;;;;;;;2.10;1.17;;;13.30;99.90;;;;;;947815;149;27404;-75
2022/09/27 03:03:47;;;;;;;1.90;1.10;;;13.30;99.90;;;;;;949234;149;27279;-76
2022/09/27 03:06:13;;;;;;;2.67;1.40;;;13.30;99.90;;;;;;948637;148;27317;-76
2022/09/27 03:08:40;;;;;;;1.63;0.93;;;13.30;99.90;;;;;;948779;149;27276;-76
2022/09/27 03:11:06;;;;;;;2.43;1.20;;;13.30;99.90;;;;;;948879;148;27426;-75
2022/09/27 03:13:35;;;;;;;1.63;1.10;;;13.30;99.90;;;;;;945102;148;27317;-74
2022/09/27 03:16:00;;;;;;;1.10;1.00;;;13.30;99.90;;;;;;937309;149;27397;-75
2022/09/27 03:18:26;;;;;;;3.93;1.60;;;13.30;99.90;;;;;;930829;150;27414;-75
2022/09/27 03:20:53;;;;;;;3.13;1.37;;;13.30;99.90;;;;;;941291;149;27360;-75
2022/09/27 03:23:19;;;;;;;0.90;0.80;;;13.30;99.90;;;;;;941566;149;27373;-75
2022/09/27 03:25:46;;;;;;;1.20;1.10;;;13.30;99.90;;;;;;943657;149;27454;-75
2022/09/27 03:28:13;;;;;;;1.03;1.00;;;13.30;99.90;;;;;;941958;149;27337;-75
2022/09/27 03:30:40;;;;;;;1.23;1.00;;;13.30;99.90;;;;;;942085;149;27294;-76
2022/09/27 03:33:08;;;;;;;0.93;0.93;;;13.30;99.90;;;;;;930821;150;27997;-75
2022/09/27 03:35:32;;;;;;;1.00;0.90;;;13.30;99.90;;;;;;943881;149;27354;-77
2022/09/27 03:37:59;;;;;;;2.00;1.03;;;13.30;99.90;;;;;;946019;149;27372;-75
2022/09/27 03:40:26;;;;;;;1.67;1.10;;;13.30;99.90;;;;;;944217;149;27448;-75
2022/09/27 03:42:52;;;;;;;2.30;0.87;;;13.30;99.90;;;;;;945549;149;27359;-75
2022/09/27 03:45:19;;;;;;;0.90;0.80;;;13.30;99.90;;;;;;946048;148;27456;-76
2022/09/27 03:47:45;;;;;;;1.37;1.10;;;13.30;99.90;;;;;;944822;149;27437;-76
2022/09/27 03:50:12;;;;;;;2.20;1.10;;;13.30;99.90;;;;;;945858;149;27430;-74
2022/09/27 03:52:38;;;;;;;0.80;0.80;;;13.30;99.90;;;;;;944900;149;28759;-75
2022/09/27 03:55:05;;;;;;;0.80;0.80;;;13.30;99.90;;;;;;944331;149;27325;-75
2022/09/27 03:57:32;;;;;;;3.13;1.00;;;13.30;99.90;;;;;;946358;149;27320;-75
2022/09/27 03:59:58;;;;;;;4.57;1.23;;;13.30;99.90;;;;;;946348;149;27355;-75
2022/09/27 04:02:28;;;;;;;1.50;1.10;;;13.30;99.90;;;;;;946119;149;27448;-77
2022/09/27 04:04:54;;;;;;;0.93;0.90;;;13.30;99.90;;;;;;943808;149;27431;-75
2022/09/27 04:07:22;;;;;;;1.57;1.10;;;13.30;99.90;;;;;;945579;149;27386;-75
2022/09/27 04:09:47;;;;;;;2.67;1.00;;;13.30;99.90;;;;;;946372;149;27403;-75
2022/09/27 04:12:14;;;;;;;1.53;0.90;;;13.30;99.90;;;;;;946609;149;27380;-75
2022/09/27 04:14:41;;;;;;;0.87;0.87;;;13.30;99.90;;;;;;946719;149;27359;-75
2022/09/27 04:17:07;;;;;;;2.83;1.07;;;13.30;99.90;;;;;;946942;149;27888;-75
2022/09/27 04:19:35;;;;;;;0.90;0.90;;;13.30;99.90;;;;;;945870;149;27306;-74
2022/09/27 04:22:00;;;;;;;1.10;1.00;;;13.30;99.90;;;;;;944628;149;27326;-75
2022/09/27 04:24:27;;;;;;;1.37;1.00;;;13.30;99.90;;;;;;944969;149;27308;-75
2022/09/27 04:26:53;;;;;;;1.20;1.17;;;13.30;99.90;;;;;;946528;149;27345;-77
2022/09/27 04:29:20;;;;;;;1.57;1.07;;;13.30;99.90;;;;;;947044;146;27435;-75
2022/09/27 04:31:47;;;;;;;0.80;0.80;;;13.20;99.90;;;;;;927166;150;27338;-75
2022/09/27 04:34:13;;;;;;;2.00;1.03;;;13.20;99.90;;;;;;941638;149;27338;-75
2022/09/27 04:36:40;;;;;;;0.87;0.87;;;13.20;99.90;;;;;;941738;149;27306;-76
2022/09/27 04:39:06;;;;;;;0.93;0.83;;;13.20;99.90;;;;;;941173;149;27429;-77
2022/09/27 04:41:34;;;;;;;0.80;0.80;;;13.20;99.90;;;;;;940219;149;27393;-75
2022/09/27 04:44:00;;;;;;;0.67;0.63;;;13.20;99.90;;;;;;943411;149;27346;-76
2022/09/27 04:46:30;;;;;;;0.80;0.80;;;13.20;99.90;;;;;;942210;149;27887;-75
2022/09/27 04:48:53;;;;;;;1.50;0.60;;;13.20;99.90;;;;;;940812;149;27352;-75
2022/09/27 04:51:19;;;;;;;2.33;0.60;;;13.10;99.90;;;;;;941598;149;27430;-75
2022/09/27 04:53:46;;;;;;;0.70;0.70;;;13.10;99.90;;;;;;943379;149;27429;-75
2022/09/27 04:56:12;;;;;;;0.40;0.40;;;13.10;99.90;;;;;;941352;149;27376;-75
2022/09/27 04:58:39;;;;;;;1.33;0.47;;;13.00;99.90;;;;;;941655;149;27306;-75
2022/09/27 05:01:06;;;;;;;0.70;0.70;;;13.00;99.90;;;;;;941849;149;27829;-75
2022/09/27 05:03:32;;;;;;;2.33;0.80;;;13.00;99.90;;;;;;941802;149;27403;-75
2022/09/27 05:05:59;;;;;;;0.47;0.47;;;13.00;99.90;;;;;;946083;147;27308;-76
2022/09/27 05:08:25;;;;;;;1.10;0.70;;;12.90;99.90;;;;;;947233;147;27364;-75
2022/09/27 05:10:52;;;;;;;1.23;0.83;;;12.90;99.90;;;;;;945508;147;27309;-75
2022/09/27 05:13:19;;;;;;;0.70;0.70;;;12.90;99.90;;;;;;953012;146;27466;-75
2022/09/27 05:15:45;;;;;;;0.67;0.60;;;12.80;99.90;;;;;;946044;148;27337;-75
2022/09/27 05:18:12;;;;;;;1.07;0.77;;;12.80;99.90;;;;;;948237;147;27359;-75
2022/09/27 05:20:38;;;;;;;0.70;0.70;;;12.80;99.90;;;;;;948723;148;27347;-75
2022/09/27 05:23:05;;;;;;;1.20;0.73;;;12.80;99.90;;;;;;959884;145;27767;-75
2022/09/27 05:25:32;;;;;;;1.23;0.80;;;12.70;99.90;;;;;;938776;149;27380;-75
2022/09/27 05:27:58;;;;;;;0.60;0.60;;;12.70;99.90;;;;;;960372;145;27325;-75
2022/09/27 05:30:25;;;;;;;1.27;0.40;;;12.70;99.90;;;;;;958758;146;27367;-75
2022/09/27 05:32:51;;;;;;;0.50;0.50;;;12.70;99.90;;;;;;945727;149;27427;-75
2022/09/27 05:35:18;;;;;;;0.40;0.40;;;12.60;99.90;;;;;;961424;145;27388;-76
2022/09/27 05:37:50;;;;;;;1.40;0.50;;;12.60;99.90;;;;;;942730;149;27322;-75
2022/09/27 05:40:17;;;;;;;0.40;0.40;;;12.60;99.90;;;;;;960013;146;27244;-75
2022/09/27 05:42:44;;;;;;;0.40;0.40;;;12.60;99.90;;;;;;961963;146;27314;-77
2022/09/27 05:45:10;;;;;;;0.47;0.47;;;12.50;99.90;;;;;;959839;146;27386;-76
2022/09/27 05:47:37;;;;;;;1.20;0.70;;;12.50;99.90;;;;;;960671;145;27436;-75
2022/09/27 05:50:04;;;;;;;0.50;0.47;;;12.50;99.90;;;;;;960536;145;27392;-75
2022/09/27 05:52:30;;;;;;;0.57;0.57;;;12.50;99.90;;;;;;960231;146;27639;-76
2022/09/27 05:54:57;;;;;;;3.83;1.13;;;12.50;99.90;;;;;;961661;145;27292;-75
2022/09/27 05:57:23;;;;;;;2.80;0.60;;;12.50;99.90;;;;;;966390;145;27264;-75
2022/09/27 05:59:50;;;;;;;1.17;0.50;;;12.50;99.90;;;;;;965607;145;27338;-75
2022/09/27 06:02:17;;;;;;;0.87;0.60;;;12.50;99.90;;;;;;956063;146;27480;-75
2022/09/27 06:04:43;;;;;;;0.70;0.70;;;12.50;99.90;;;;;;949238;149;27269;-75
2022/09/27 06:07:09;;;;;;;0.63;0.40;;;12.50;99.90;;;;;;950678;148;27397;-75
2022/09/27 06:09:36;;;;;;;0.57;0.40;;;12.50;99.90;;;;;;963796;145;27699;-77
2022/09/27 06:12:03;;;;;;;1.30;1.20;;;12.50;99.90;;;;;;961995;145;27349;-78
2022/09/27 06:14:29;;;;;;;0.90;0.90;;;12.50;99.90;;;;;;959935;145;27382;-76
2022/09/27 06:16:56;;;;;;;1.37;0.83;;;12.60;99.90;;;;;;963094;145;27322;-77
2022/09/27 06:19:22;;;;;;;1.27;1.17;;;12.60;99.90;;;;;;960895;145;27387;-78
2022/09/27 06:21:49;;;;;;;1.30;1.20;;;12.60;99.90;;;;;;961563;145;27940;-77
2022/09/27 06:24:16;;;;;;;3.47;1.50;;;12.70;99.90;;;;;;960534;146;27338;-78
2022/09/27 06:26:42;;;;;;;1.50;1.40;;;12.70;99.90;;;;;;952345;148;27368;-77
2022/09/27 06:29:09;;;;;;;1.37;1.27;;;12.80;99.90;;;;;;948478;148;27424;-78
2022/09/27 06:31:35;;;;;;;1.23;1.07;;;12.80;99.90;;;;;;946528;148;27336;-77
2022/09/27 06:34:02;;;;;;;0.60;0.60;;;12.90;99.90;;;;;;948147;148;27342;-77
2022/09/27 06:36:28;;;;;;;0.87;0.70;;;12.90;99.90;;;;;;958898;148;27372;-78
2022/09/27 06:38:55;;;;;;;1.00;0.73;;;12.90;99.90;;;;;;960465;148;27372;-78
2022/09/27 06:41:22;;;;;;;2.17;0.77;;;13.00;99.90;;;;;;959098;148;27438;-77
2022/09/27 06:43:48;;;;;;;0.80;0.80;;;13.10;99.90;;;;;;945960;147;27312;-77
2022/09/27 06:46:15;;;;;;;0.97;0.67;;;13.10;99.90;;;;;;960322;145;27284;-78
2022/09/27 06:48:41;;;;;;;0.60;0.60;;;13.10;99.90;;;;;;960501;148;27347;-78
2022/09/27 06:51:08;;;;;;;0.90;0.87;;;13.20;99.90;;;;;;944617;149;27478;-78
2022/09/27 06:53:35;;;;;;;0.77;0.73;;;13.30;99.90;;;;;;948730;148;27358;-77
2022/09/27 06:56:01;;;;;;;0.60;0.60;;;13.30;99.90;;;;;;959928;146;27310;-78
2022/09/27 07:01:13;;;;;;;1.97;0.93;;;13.40;99.90;;;;;;959361;145;27389;-77
2022/09/27 07:03:42;;;;;;;1.10;1.00;;;13.50;99.90;;;;;;961787;145;27355;-78
2022/09/27 07:06:06;;;;;;;3.03;1.37;;;13.60;99.90;;;;;;961665;145;27466;-78
2022/09/27 07:08:34;;;;;;;1.10;1.00;;;13.70;99.90;;;;;;942105;148;27398;-78
2022/09/27 07:11:05;;;;;;;0.60;0.60;;;13.70;99.90;;;;;;940702;148;27401;-78
2022/09/27 07:13:33;;;;;;;0.80;0.80;;;13.80;99.90;;;;;;942491;148;27337;-78
2022/09/27 07:15:58;;;;;;;0.70;0.70;;;13.90;99.90;;;;;;943366;148;27410;-78
2022/09/27 07:18:25;;;;;;;0.60;0.57;;;14.00;99.90;;;;;;948251;149;27332;-79
2022/09/27 07:20:51;;;;;;;1.02;0.70;;;14.10;99.90;;;;;;948937;148;27359;-78
2022/09/27 07:23:18;;;;;;;0.70;0.70;;;14.10;99.90;;;;;;944718;148;27774;-78
2022/09/27 07:25:45;;;;;;;0.40;0.40;;;14.20;99.90;;;;;;960266;145;27310;-78
2022/09/27 07:28:14;;;;;;;0.80;0.70;;;14.30;99.90;;;;;;962060;145;27321;-77
2022/09/27 07:30:40;;;;;;;0.60;0.60;;;14.40;99.90;;;;;;957184;146;28768;-77
2022/09/27 07:33:07;;;;;;;0.80;0.57;;;14.50;99.90;;;;;;947789;148;27442;-78
2022/09/27 07:35:35;;;;;;;0.50;0.50;;;14.60;99.90;;;;;;957677;146;27320;-77
2022/09/27 07:38:00;;;;;;;0.43;0.43;;;14.70;99.90;;;;;;948934;149;27322;-78
2022/09/27 07:40:27;;;;;;;0.73;0.43;;;14.80;99.90;;;;;;959725;146;27684;-78
2022/09/27 07:42:56;;;;;;;2.40;0.70;;;14.90;99.90;;;;;;948349;148;27388;-79
2022/09/27 07:45:23;;;;;;;0.42;0.42;;;15.00;99.90;;;;;;966823;145;27403;-77
2022/09/27 07:47:49;;;;;;;1.55;0.50;;;15.00;99.90;;;;;;944028;148;27889;-78
2022/09/27 07:50:16;;;;;;;0.40;0.40;;;15.10;99.70;;;;;;948815;148;27292;-78
2022/09/27 07:52:42;;;;;;;1.40;0.50;;;15.10;99.50;;;;;;962741;148;27297;-77
2022/09/27 07:55:09;;;;;;;0.50;0.47;;;15.20;99.70;;;;;;949899;148;27845;-78
2022/09/27 07:57:35;;;;;;;0.88;0.70;;;15.20;99.70;;;;;;960984;146;27339;-77
2022/09/27 08:00:02;;;;;;;0.40;0.40;;;15.30;99.40;;;;;;943132;149;27302;-77
2022/09/27 08:02:30;;;;;;;1.27;0.37;;;15.40;99.70;;;;;;959155;145;27629;-79
2022/09/27 08:04:55;;;;;;;0.45;0.37;;;15.50;99.30;;;;;;959428;148;27360;-77
2022/09/27 08:07:22;;;;;;;1.17;0.53;;;15.60;99.00;;;;;;960884;148;27323;-79
2022/09/27 08:09:48;;;;;;;1.35;0.30;;;15.70;98.80;;;;;;946305;148;27507;-78
2022/09/27 08:12:15;;;;;;;0.42;0.42;;;15.80;98.70;;;;;;961306;145;27298;-78
2022/09/27 08:14:42;;;;;;;0.42;0.40;;;16.00;98.30;;;;;;961520;145;27432;-78
2022/09/27 08:17:11;;;;;;;0.30;0.30;;;16.10;97.80;;;;;;959529;145;27312;-78
2022/09/27 08:19:38;;;;;;;1.65;0.28;;;16.10;96.90;;;;;;959627;146;27330;-79
2022/09/27 08:22:04;;;;;;;0.40;0.40;;;16.20;96.40;;;;;;965765;145;27439;-77
2022/09/27 08:24:31;;;;;;;2.70;0.40;;;16.30;95.90;;;;;;958907;146;28042;-77
2022/09/27 08:26:57;;;;;;;0.60;0.40;;;16.30;95.40;;;;;;959862;146;27344;-78
2022/09/27 08:29:24;;;;;;;2.75;0.40;;;16.40;95.20;;;;;;942811;148;27999;-77
2022/09/27 08:31:50;;;;;;;1.95;0.57;;;16.40;95.30;;;;;;961552;146;27377;-78
2022/09/27 08:34:17;;;;;;;0.47;0.47;;;16.60;96.00;;;;;;945786;148;27380;-77
2022/09/27 08:36:44;;;;;;;1.17;0.40;;;16.80;96.50;;;;;;961567;145;27427;-77
2022/09/27 08:39:10;;;;;;;0.25;0.25;;;17.00;96.30;;;;;;940522;149;28071;-77
2022/09/27 08:41:38;;;;;;;1.22;0.50;;;17.20;96.00;;;;;;960932;145;27870;-76
2022/09/27 08:44:12;;;;;;;0.90;0.50;;;17.40;95.60;;;;;;960402;148;27345;-77
2022/09/27 08:46:52;;;;;;;0.30;0.30;;;17.60;94.20;;;;;;959382;148;27331;-78
2022/09/27 08:49:17;;;;;;;1.62;0.33;;;17.80;93.00;;;;;;951022;148;27288;-77
2022/09/27 08:51:45;;;;;;;1.02;0.28;;;18.00;92.40;;;;;;960422;148;27380;-77
2022/09/27 08:54:13;;;;;;;0.98;0.42;;;18.20;92.10;;;;;;948257;148;27302;-78
2022/09/27 08:56:40;;;;;;;0.25;0.25;;;18.30;91.40;;;;;;958306;146;27325;-78
2022/09/27 08:59:20;;;;;;;0.30;0.30;;;18.40;90.30;;;;;;944398;149;27364;-77
2022/09/27 09:01:42;;;;;;;1.52;0.40;;;18.50;89.00;;;;;;955737;149;27424;-76
2022/09/27 09:04:09;;;;;;;0.40;0.30;;;18.60;88.20;;;;;;956279;148;27311;-78
2022/09/27 09:07:07;;;;;;;0.78;0.40;;;18.60;87.10;;;;;;955046;149;27349;-77
2022/09/27 09:09:36;;;;;;;0.55;0.40;;;18.70;87.50;;;;;;956412;149;27302;-77
2022/09/27 09:14:50;;;;;;;0.40;0.40;;;18.90;87.10;;;;;;955927;146;27415;-78
2022/09/27 09:17:41;;;;;;;0.30;0.30;;;19.00;85.90;;;;;;950222;149;27374;-78
2022/09/27 09:20:16;;;;;;;0.20;0.20;;;19.10;85.30;;;;;;950029;149;27441;-76
2022/09/27 09:22:57;;;;;;;2.02;0.50;;;19.10;83.70;;;;;;949178;149;27370;-77
2022/09/27 09:25:33;;;;;;;1.85;0.53;;;19.00;81.90;;;;;;949004;149;27292;-77
2022/09/27 09:28:18;;;;;;;0.42;0.33;;;19.00;80.30;;;;;;950410;149;27493;-78
2022/09/27 09:31:06;;;;;;;0.40;0.40;;;18.80;79.70;;;;;;904829;149;28133;-78
2022/09/27 09:33:35;;;;;;;0.82;0.23;;;18.90;81.00;;;;;;951750;149;27451;-77
2022/09/27 09:36:19;;;;;;;0.98;0.42;;;19.00;85.70;;;;;;949302;149;27417;-77
2022/09/27 09:38:52;;;;;;;0.85;0.23;;;19.30;88.20;;;;;;943409;149;27425;-78
2022/09/27 09:41:24;;;;;;;0.42;0.40;;;19.70;87.50;;;;;;950259;149;27440;-77
2022/09/27 09:44:18;;;;;;;1.05;0.57;;;20.10;84.90;;;;;;950542;149;27774;-76
2022/09/27 09:49:23;;;;;;;1.70;0.57;;;20.30;82.00;;;;;;976211;145;38460;-76
2022/09/27 09:51:56;;;;;;;0.42;0.40;;;20.60;76.30;;;;;;963714;146;27836;-76
2022/09/27 09:54:22;;;;;;;1.65;0.62;;;20.60;74.90;;;;;;963353;146;27432;-77
2022/09/27 09:56:50;;;;;;;0.85;0.42;;;20.50;74.80;;;;;;963368;146;27460;-76
2022/09/27 09:59:18;;;;;;;0.33;0.33;;;20.50;75.30;;;;;;961748;146;27267;-76
2022/09/27 10:01:44;;;;;;;1.45;0.70;;;20.50;76.40;;;;;;963621;146;27303;-77
2022/09/27 10:04:20;;;;;;;0.65;0.45;;;20.60;76.20;;;;;;962977;146;27844;-77
2022/09/27 10:06:46;;;;;;;0.50;0.30;;;20.70;76.20;;;;;;964420;146;27455;-78
2022/09/27 10:09:16;;;;;;;0.37;0.30;;;20.80;74.90;;;;;;962983;146;28558;-78
2022/09/27 10:11:45;;;;;;;1.67;0.80;;;21.00;73.20;;;;;;963917;146;27287;-78
2022/09/27 10:14:12;;;;;;;0.62;0.37;;;21.00;72.50;;;;;;963612;146;27315;-78
2022/09/27 10:16:38;;;;;;;0.98;0.62;;;21.00;71.70;;;;;;962920;146;27433;-78
2022/09/27 10:19:05;;;;;;;0.50;0.50;;;20.90;71.00;;;;;;964270;146;27939;-78
2022/09/27 10:21:31;;;;;;;0.47;0.47;;;20.80;70.60;;;;;;963596;146;27282;-77
2022/09/27 10:24:10;;;;;;;0.85;0.60;;;20.70;70.10;;;;;;964318;146;27386;-78
2022/09/27 10:26:36;;;;;;;0.62;0.50;;;20.60;69.40;;;;;;963950;146;27319;-78
2022/09/27 10:29:24;;;;;;;0.75;0.35;;;20.40;69.20;;;;;;965316;146;27454;-77
2022/09/27 10:31:51;;;;;;;0.30;0.30;;;20.20;69.10;;;;;;965293;145;27308;-77
2022/09/27 10:34:20;;;;;;;1.10;0.53;;;20.10;69.60;;;;;;963452;146;27310;-77
2022/09/27 10:36:47;;;;;;;0.78;0.55;;;20.00;69.70;;;;;;963407;146;27329;-77
2022/09/27 10:39:23;;;;;;;0.40;0.40;;;19.90;70.30;;;;;;960681;146;27298;-77
2022/09/27 10:41:49;;;;;;;0.95;0.40;;;19.80;70.30;;;;;;964039;146;27428;-78
2022/09/27 10:44:16;;;;;;;2.85;0.50;;;19.80;70.30;;;;;;960473;146;27471;-77
2022/09/27 10:46:42;;;;;;;0.47;0.23;;;19.80;70.30;;;;;;955639;149;27287;-78
2022/09/27 10:49:18;;;;;;;0.65;0.42;;;19.80;70.20;;;;;;958962;147;27405;-77
2022/09/27 10:51:44;;;;;;;0.70;0.30;;;19.80;70.40;;;;;;963081;147;27313;-76
2022/09/27 10:54:19;;;;;;;1.00;0.40;;;19.80;70.50;;;;;;962331;147;27349;-78
2022/09/27 10:56:46;;;;;;;0.47;0.28;;;19.80;70.30;;;;;;961725;147;27286;-77
2022/09/27 10:59:12;;;;;;;1.12;0.30;;;19.60;69.20;;;;;;961773;147;27314;-77
2022/09/27 11:01:39;;;;;;;0.42;0.30;;;19.50;68.90;;;;;;962315;147;27383;-76
2022/09/27 11:04:06;;;;;;;0.30;0.30;;;19.30;69.00;;;;;;963080;147;27298;-77
2022/09/27 11:06:36;;;;;;;0.55;0.30;;;19.10;69.20;;;;;;962333;147;27326;-77
2022/09/27 11:08:59;;;;;;;0.20;0.20;;;18.90;69.60;;;;;;964403;147;27936;-76
2022/09/27 11:11:25;;;;;;;0.57;0.50;;;18.80;70.40;;;;;;962702;147;27306;-77
2022/09/27 11:13:58;;;;;;;0.62;0.62;;;18.70;71.20;;;;;;963594;147;27317;-77
2022/09/27 11:16:43;;;;;;;0.20;0.20;;;18.70;72.10;;;;;;961754;145;27376;-77
2022/09/27 11:19:44;;;;;;;0.35;0.35;;;18.70;71.90;;;;;;962581;147;27404;-77
2022/09/27 11:22:37;;;;;;;0.37;0.37;;;18.80;71.50;;;;;;964009;147;27304;-76
2022/09/27 11:25:13;;;;;;;0.33;0.30;;;18.80;71.70;;;;;;962171;147;27337;-78
2022/09/27 11:27:57;;;;;;;0.95;0.30;;;18.80;71.50;;;;;;963361;147;27480;-78
2022/09/27 11:30:24;;;;;;;1.72;0.60;;;18.80;71.20;;;;;;964583;147;27449;-77
2022/09/27 11:32:56;;;;;;;1.52;0.35;;;18.80;71.20;;;;;;965488;147;27321;-77
2022/09/27 11:36:00;;;;;;;0.40;0.40;;;18.80;70.00;;;;;;961636;147;27384;-77
2022/09/27 11:38:39;;;;;;;1.32;0.50;;;18.80;70.70;;;;;;963275;147;27295;-77
2022/09/27 11:41:29;;;;;;;0.62;0.60;;;18.80;70.70;;;;;;963161;147;27317;-77
2022/09/27 11:44:04;;;;;;;1.30;0.40;;;18.80;70.10;;;;;;963599;147;27416;-77
2022/09/27 11:46:40;;;;;;;0.30;0.30;;;18.80;69.90;;;;;;962108;147;27341;-76
2022/09/27 11:49:18;;;;;;;0.62;0.37;;;18.70;69.20;;;;;;958577;147;27387;-77
2022/09/27 11:51:57;;;;;;;0.42;0.28;;;18.70;69.00;;;;;;948565;150;27269;-77
2022/09/27 11:54:29;;;;;;;0.65;0.37;;;18.60;69.10;;;;;;948757;150;27430;-78
2022/09/27 11:56:55;;;;;;;0.28;0.28;;;18.60;69.70;;;;;;946836;147;27320;-77
2022/09/27 11:59:43;;;;;;;2.35;0.82;;;18.60;70.10;;;;;;946363;148;27336;-76
2022/09/27 12:02:31;;;;;;;0.53;0.42;;;18.60;70.50;;;;;;950984;149;27393;-76
2022/09/27 12:05:07;;;;;;;0.30;0.30;;;18.80;70.40;;;;;;947981;149;27392;-76
2022/09/27 12:07:33;;;;;;;0.50;0.50;;;18.90;70.40;;;;;;949512;149;27355;-77
2022/09/27 12:10:02;;;;;;;0.82;0.60;;;19.00;69.90;;;;;;948324;149;27320;-76
2022/09/27 12:12:29;;;;;;;0.53;0.53;;;19.10;69.30;;;;;;948887;150;27328;-76
2022/09/27 12:14:58;;;;;;;0.57;0.57;;;19.20;69.00;;;;;;949020;150;27297;-77
2022/09/27 12:17:30;;;;;;;1.07;0.35;;;19.30;68.60;;;;;;947730;149;27697;-76
2022/09/27 12:19:57;;;;;;;0.70;0.40;;;19.40;67.90;;;;;;948617;150;27300;-76
2022/09/27 12:22:26;;;;;;;0.70;0.57;;;19.50;68.30;;;;;;947719;150;27351;-76
2022/09/27 12:24:53;;;;;;;1.27;0.80;;;19.50;68.20;;;;;;948289;149;27276;-77
2022/09/27 12:27:19;;;;;;;1.10;0.60;;;19.60;68.00;;;;;;949444;150;27348;-78
2022/09/27 12:29:46;;;;;;;0.40;0.30;;;19.60;66.30;;;;;;946923;150;27355;-76
2022/09/27 12:32:18;;;;;;;0.98;0.60;;;19.70;66.90;;;;;;947061;150;27316;-77
2022/09/27 12:34:51;;;;;;;0.50;0.50;;;19.70;66.10;;;;;;951132;150;27300;-77
2022/09/27 12:37:38;;;;;;;1.20;0.72;;;19.70;65.80;;;;;;946906;150;27327;-77
2022/09/27 12:40:26;;;;;;;1.17;0.42;;;19.70;65.70;;;;;;950314;149;27355;-77
2022/09/27 12:43:08;;;;;;;1.65;0.65;;;19.70;65.60;;;;;;946562;150;27643;-76
2022/09/27 12:45:39;;;;;;;1.05;0.53;;;19.70;65.60;;;;;;947522;150;27364;-76
2022/09/27 12:48:36;;;;;;;0.50;0.50;;;19.70;65.60;;;;;;948187;150;27317;-77
2022/09/27 12:51:12;;;;;;;0.90;0.50;;;19.60;64.80;;;;;;949962;150;27467;-78
2022/09/27 12:54:02;;;;;;;1.07;0.68;;;19.50;64.80;;;;;;951329;150;27320;-77
2022/09/27 12:56:35;;;;;;;0.57;0.55;;;19.50;64.90;;;;;;948494;149;27429;-77
2022/09/27 12:59:17;;;;;;;0.40;0.40;;;19.40;65.00;;;;;;944452;150;27293;-77
2022/09/27 13:01:56;;;;;;;1.35;0.85;;;19.40;65.50;;;;;;948765;150;27381;-77
2022/09/27 13:04:40;;;;;;;0.60;0.50;;;19.30;65.20;;;;;;946927;150;27336;-76
2022/09/27 13:07:10;;;;;;;1.20;0.78;;;19.30;64.90;;;;;;894374;157;27927;-77
2022/09/27 13:10:07;;;;;;;0.80;0.80;;;19.30;65.00;;;;;;892183;157;27474;-76